createdAt,value
2023-01-31T00:01:57.280Z,99618.84
2023-01-31T00:04:25.229Z,99612.53
2023-01-31T00:06:54.082Z,99611.38
2023-01-31T00:09:22.145Z,99600.72
2023-01-31T00:11:50.034Z,99600.81
2023-01-31T00:14:22.962Z,99597.09
2023-01-31T00:16:52.203Z,99592.94
2023-01-31T00:19:21.443Z,99593.03
2023-01-31T00:21:49.443Z,99590.84
2023-01-31T00:24:17.295Z,99599.72
2023-01-31T00:26:45.310Z,99601.78
2023-01-31T00:29:13.217Z,99599.97
2023-01-31T00:31:41.537Z,99593.13
2023-01-31T00:34:09.621Z,99590.84
2023-01-31T00:36:39.015Z,99595.69
2023-01-31T00:39:11.208Z,99590.16
2023-01-31T00:41:40.078Z,99585.34
2023-01-31T00:44:08.582Z,99592.78
2023-01-31T00:46:37.551Z,99592.75
2023-01-31T00:49:05.967Z,99584.69
2023-01-31T00:51:36.004Z,99585.84
2023-01-31T00:54:05.404Z,99592.06
2023-01-31T00:56:36.130Z,99587.97
2023-01-31T00:59:04.689Z,99588.31
2023-01-31T01:01:32.664Z,99593.63
2023-01-31T01:04:00.729Z,99579.78
2023-01-31T01:06:35.232Z,99587.63
2023-01-31T01:09:03.207Z,99590.34
2023-01-31T01:11:36.822Z,99596.09
2023-01-31T01:14:05.792Z,99603.91
2023-01-31T01:16:36.838Z,99597.25
2023-01-31T01:19:06.294Z,99598.09
2023-01-31T01:21:38.177Z,99598.81
2023-01-31T01:24:08.310Z,99600.38
2023-01-31T01:26:37.986Z,99602.19
2023-01-31T01:29:06.304Z,99607.88
2023-01-31T01:31:35.079Z,99603.53
2023-01-31T01:34:07.010Z,99616.41
2023-01-31T01:36:36.001Z,99614.41
2023-01-31T01:39:05.015Z,99614.72
2023-01-31T01:41:34.574Z,99617.47
2023-01-31T01:44:06.225Z,99616.81
2023-01-31T01:46:40.744Z,99623.66
2023-01-31T01:49:19.584Z,99622.69
2023-01-31T01:51:50.477Z,99623.56
2023-01-31T01:54:23.862Z,99622.44
2023-01-31T01:56:57.552Z,99620.34
2023-01-31T01:59:32.446Z,99626.13
2023-01-31T02:02:00.862Z,99628.38
2023-01-31T02:04:35.262Z,99629.16
2023-01-31T02:07:03.529Z,99625.47
2023-01-31T02:09:36.140Z,99626.78
2023-01-31T02:12:07.391Z,99619.38
2023-01-31T02:14:37.325Z,99630.69
2023-01-31T02:17:05.660Z,99630.19
2023-01-31T02:19:47.478Z,99633.53
2023-01-31T02:22:22.871Z,99636.03
2023-01-31T02:25:29.430Z,99642.97
2023-01-31T02:28:27.753Z,99648.63
2023-01-31T02:31:46.532Z,99647.69
2023-01-31T02:34:22.868Z,99647.00
2023-01-31T02:37:02.438Z,99656.69
2023-01-31T02:39:39.633Z,99654.06
2023-01-31T02:42:16.773Z,99653.34
2023-01-31T02:45:00.658Z,99653.13
2023-01-31T02:47:40.757Z,99658.25
2023-01-31T02:50:16.546Z,99659.88
2023-01-31T02:52:49.968Z,99658.31
2023-01-31T02:55:40.302Z,99661.03
2023-01-31T02:58:10.856Z,99660.69
2023-01-31T03:00:43.267Z,99657.81
2023-01-31T03:03:21.569Z,99652.09
2023-01-31T03:06:35.674Z,99646.66
2023-01-31T03:09:11.222Z,99658.34
2023-01-31T03:11:47.824Z,99654.84
2023-01-31T03:14:27.337Z,99655.75
2023-01-31T03:17:35.572Z,99656.16
2023-01-31T03:20:10.945Z,99655.28
2023-01-31T03:22:45.474Z,99653.81
2023-01-31T03:25:16.880Z,99652.13
2023-01-31T03:27:52.755Z,99657.56
2023-01-31T03:30:27.583Z,99657.13
2023-01-31T03:33:00.028Z,99653.97
2023-01-31T03:35:33.789Z,99659.41
2023-01-31T03:38:12.324Z,99659.09
2023-01-31T03:40:44.679Z,99671.06
2023-01-31T03:43:22.111Z,99669.31
2023-01-31T03:45:55.740Z,99673.50
2023-01-31T03:48:29.262Z,99679.19
2023-01-31T03:51:03.868Z,99672.28
2023-01-31T03:53:37.965Z,99663.50
2023-01-31T03:56:14.572Z,99675.59
2023-01-31T03:58:47.650Z,99671.66
2023-01-31T04:01:18.092Z,99679.50
2023-01-31T04:03:51.142Z,99679.28
2023-01-31T04:06:20.193Z,99689.28
2023-01-31T04:08:51.944Z,99691.47
2023-01-31T04:11:23.271Z,99698.13
2023-01-31T04:13:51.229Z,99704.03
2023-01-31T04:16:19.353Z,99702.34
2023-01-31T04:18:50.391Z,99696.88
2023-01-31T04:21:18.190Z,99690.94
2023-01-31T04:23:46.038Z,99695.66
2023-01-31T04:26:15.893Z,99693.56
2023-01-31T04:28:43.845Z,99692.59
2023-01-31T04:31:12.127Z,99691.91
2023-01-31T04:33:40.003Z,99695.09
2023-01-31T04:36:09.120Z,99689.50
2023-01-31T04:38:36.933Z,99695.00
2023-01-31T04:41:05.027Z,99702.13
2023-01-31T04:43:34.542Z,99701.31
2023-01-31T04:46:02.351Z,99702.28
2023-01-31T04:48:30.231Z,99701.41
2023-01-31T04:50:58.031Z,99702.28
2023-01-31T04:53:26.185Z,99707.06
2023-01-31T04:55:55.020Z,99695.31
2023-01-31T04:58:23.049Z,99702.72
2023-01-31T05:00:54.507Z,99694.03
2023-01-31T05:03:22.547Z,99688.03
2023-01-31T05:05:50.664Z,99691.34
2023-01-31T05:08:18.628Z,99697.16
2023-01-31T05:10:46.408Z,99703.31
2023-01-31T05:13:14.622Z,99705.72
2023-01-31T05:15:42.543Z,99695.00
2023-01-31T05:18:11.815Z,99697.78
2023-01-31T05:20:41.157Z,99694.97
2023-01-31T05:23:09.395Z,99696.38
2023-01-31T05:25:38.614Z,99697.75
2023-01-31T05:28:06.843Z,99705.25
2023-01-31T05:30:35.084Z,99701.00
2023-01-31T05:33:03.021Z,99700.47
2023-01-31T05:35:32.398Z,99703.78
2023-01-31T05:38:00.241Z,99704.59
2023-01-31T05:40:28.400Z,99711.44
2023-01-31T05:42:56.862Z,99711.59
2023-01-31T05:45:25.269Z,99709.88
2023-01-31T05:47:53.189Z,99699.38
2023-01-31T05:50:21.498Z,99702.91
2023-01-31T05:52:55.711Z,99702.31
2023-01-31T05:55:24.041Z,99698.06
2023-01-31T05:57:53.140Z,99704.47
2023-01-31T06:00:22.441Z,99702.88
2023-01-31T06:02:50.936Z,99708.75
2023-01-31T06:05:19.827Z,99707.38
2023-01-31T06:07:47.990Z,99712.50
2023-01-31T06:10:18.676Z,99704.69
2023-01-31T06:12:48.170Z,99710.09
2023-01-31T06:15:16.268Z,99709.38
2023-01-31T06:17:44.048Z,99707.06
2023-01-31T06:20:12.608Z,99703.59
2023-01-31T06:22:40.538Z,99704.91
2023-01-31T06:25:09.154Z,99712.28
2023-01-31T06:27:38.287Z,99707.66
2023-01-31T06:30:06.900Z,99706.72
2023-01-31T06:32:37.465Z,99709.38
2023-01-31T06:35:05.768Z,99708.59
2023-01-31T06:37:33.715Z,99709.75
2023-01-31T06:40:01.661Z,99719.31
2023-01-31T06:42:29.548Z,99716.69
2023-01-31T06:44:58.727Z,99726.88
2023-01-31T06:47:26.527Z,99724.41
2023-01-31T06:49:54.546Z,99717.41
2023-01-31T06:52:22.605Z,99725.25
2023-01-31T06:54:50.376Z,99731.91
2023-01-31T06:57:18.234Z,99718.09
2023-01-31T06:59:46.007Z,99722.47
2023-01-31T07:02:15.150Z,99719.75
2023-01-31T07:04:42.974Z,99703.16
2023-01-31T07:07:10.875Z,99708.25
2023-01-31T07:09:38.696Z,99706.63
2023-01-31T07:12:06.797Z,99712.66
2023-01-31T07:14:34.616Z,99718.50
2023-01-31T07:17:02.418Z,99712.13
2023-01-31T07:19:31.830Z,99716.41
2023-01-31T07:21:59.757Z,99719.34
2023-01-31T07:24:27.630Z,99717.50
2023-01-31T07:26:55.507Z,99716.34
2023-01-31T07:29:23.362Z,99719.44
2023-01-31T07:31:51.429Z,99721.63
2023-01-31T07:34:21.671Z,99719.50
2023-01-31T07:36:51.130Z,99722.09
2023-01-31T07:39:19.335Z,99722.22
2023-01-31T07:41:47.266Z,99732.50
2023-01-31T07:44:15.089Z,99720.53
2023-01-31T07:46:43.312Z,99715.53
2023-01-31T07:49:12.531Z,99725.97
2023-01-31T07:51:40.387Z,99735.22
2023-01-31T07:54:11.595Z,99736.38
2023-01-31T07:56:39.683Z,99721.53
2023-01-31T07:59:07.536Z,99731.25
2023-01-31T08:01:53.056Z,99732.03
2023-01-31T08:04:22.671Z,99741.34
2023-01-31T08:06:54.608Z,99741.47
2023-01-31T08:09:24.879Z,99739.13
2023-01-31T08:11:52.832Z,99746.38
2023-01-31T08:14:25.286Z,99742.91
2023-01-31T08:16:53.335Z,99745.06
2023-01-31T08:19:21.209Z,99745.13
2023-01-31T08:21:49.221Z,99744.56
2023-01-31T08:24:19.501Z,99743.06
2023-01-31T08:26:48.761Z,99734.00
2023-01-31T08:29:16.686Z,99742.19
2023-01-31T08:31:44.744Z,99735.69
2023-01-31T08:34:12.976Z,99740.78
2023-01-31T08:36:40.885Z,99736.06
2023-01-31T08:39:08.989Z,99733.22
2023-01-31T08:41:38.224Z,99727.16
2023-01-31T08:44:08.135Z,99728.81
2023-01-31T08:46:38.161Z,99734.47
2023-01-31T08:49:07.649Z,99730.25
2023-01-31T08:51:35.789Z,99722.75
2023-01-31T08:54:03.634Z,99721.25
2023-01-31T08:56:31.504Z,99722.75
2023-01-31T08:59:02.286Z,99719.44
2023-01-31T09:01:32.697Z,99717.28
2023-01-31T09:04:02.152Z,99719.22
2023-01-31T09:06:30.298Z,99720.59
2023-01-31T09:08:59.614Z,99724.00
2023-01-31T09:11:30.259Z,99723.34
2023-01-31T09:13:58.953Z,99726.66
2023-01-31T09:16:26.950Z,99722.63
2023-01-31T09:18:57.030Z,99729.16
2023-01-31T09:21:25.427Z,99733.22
2023-01-31T09:23:57.457Z,99732.03
2023-01-31T09:26:25.695Z,99724.16
2023-01-31T09:28:53.583Z,99723.03
2023-01-31T09:31:23.562Z,99723.44
2023-01-31T09:33:51.668Z,99708.25
2023-01-31T09:36:25.266Z,99705.81
2023-01-31T09:38:55.705Z,99699.25
2023-01-31T09:41:31.175Z,99707.81
2023-01-31T09:44:02.677Z,99712.75
2023-01-31T09:46:37.598Z,99710.06
2023-01-31T09:49:11.944Z,99717.41
2023-01-31T09:51:41.556Z,99704.25
2023-01-31T09:54:20.752Z,99711.41
2023-01-31T09:57:00.765Z,99710.50
2023-01-31T09:59:35.555Z,99704.19
2023-01-31T10:02:17.888Z,99710.13
2023-01-31T10:05:05.533Z,99718.59
2023-01-31T10:07:42.383Z,99726.25
2023-01-31T10:10:17.452Z,99729.47
2023-01-31T10:12:48.922Z,99725.63
2023-01-31T10:15:23.756Z,99721.56
2023-01-31T10:17:56.955Z,99727.53
2023-01-31T10:20:36.199Z,99725.13
2023-01-31T10:23:13.705Z,99715.13
2023-01-31T10:25:48.634Z,99714.94
2023-01-31T10:28:20.497Z,99720.16
2023-01-31T10:30:56.086Z,99708.94
2023-01-31T10:33:31.990Z,99712.81
2023-01-31T10:36:04.920Z,99705.75
2023-01-31T10:38:42.383Z,99709.44
2023-01-31T10:41:15.788Z,99706.84
2023-01-31T10:43:49.628Z,99712.38
2023-01-31T10:46:17.694Z,99715.50
2023-01-31T10:48:49.177Z,99715.13
2023-01-31T10:51:32.898Z,99708.84
2023-01-31T10:54:17.360Z,99720.94
2023-01-31T10:56:46.985Z,99712.03
2023-01-31T10:59:24.124Z,99710.50
2023-01-31T11:01:52.601Z,99705.28
2023-01-31T11:04:26.132Z,99706.03
2023-01-31T11:06:55.122Z,99700.16
2023-01-31T11:09:25.586Z,99694.91
2023-01-31T11:11:58.512Z,99697.81
2023-01-31T11:14:26.721Z,99684.81
2023-01-31T11:17:08.973Z,99678.75
2023-01-31T11:19:40.773Z,99674.06
2023-01-31T11:22:18.213Z,99672.38
2023-01-31T11:24:49.890Z,99671.47
2023-01-31T11:27:35.813Z,99664.47
2023-01-31T11:30:05.792Z,99665.88
2023-01-31T11:32:37.901Z,99652.28
2023-01-31T11:35:09.120Z,99624.94
2023-01-31T11:37:53.571Z,99621.63
2023-01-31T11:40:52.840Z,99619.38
2023-01-31T11:43:26.874Z,99607.63
2023-01-31T11:46:00.332Z,99608.00
2023-01-31T11:48:33.098Z,99614.25
2023-01-31T11:51:02.973Z,99612.97
2023-01-31T11:53:39.993Z,99626.56
2023-01-31T11:56:15.937Z,99632.56
2023-01-31T11:58:50.899Z,99632.38
2023-01-31T12:01:20.936Z,99620.38
2023-01-31T12:04:01.979Z,99615.09
2023-01-31T12:06:34.852Z,99622.38
2023-01-31T12:09:04.894Z,99612.25
2023-01-31T12:11:36.548Z,99597.13
2023-01-31T12:14:16.143Z,99592.91
2023-01-31T12:16:46.022Z,99592.53
2023-01-31T12:19:26.887Z,99597.47
2023-01-31T12:22:03.974Z,99588.31
2023-01-31T12:24:45.702Z,99587.78
2023-01-31T12:27:28.638Z,99564.09
2023-01-31T12:30:35.666Z,99558.78
2023-01-31T12:33:14.660Z,99560.66
2023-01-31T12:35:54.805Z,99561.25
2023-01-31T12:38:39.831Z,99547.69
2023-01-31T12:41:19.686Z,99536.69
2023-01-31T12:44:09.308Z,99533.78
2023-01-31T12:46:46.004Z,99531.88
2023-01-31T12:49:43.615Z,99531.25
2023-01-31T12:52:19.912Z,99545.56
2023-01-31T12:55:03.257Z,99547.84
2023-01-31T12:57:40.397Z,99541.31
2023-01-31T13:00:28.783Z,99539.34
2023-01-31T13:03:32.124Z,99534.19
2023-01-31T13:06:04.500Z,99527.94
2023-01-31T13:08:35.681Z,99510.69
2023-01-31T13:11:07.286Z,99512.03
2023-01-31T13:13:49.072Z,99520.03
2023-01-31T13:16:22.545Z,99521.22
2023-01-31T13:18:53.533Z,99519.03
2023-01-31T13:21:27.282Z,99517.16
2023-01-31T13:24:02.599Z,99512.41
2023-01-31T13:26:34.615Z,99503.47
2023-01-31T13:29:07.280Z,99509.28
2023-01-31T13:31:42.247Z,99510.19
2023-01-31T13:34:18.686Z,99490.66
2023-01-31T13:36:50.953Z,99487.03
2023-01-31T13:39:23.701Z,99500.34
2023-01-31T13:41:54.019Z,99504.56
2023-01-31T13:44:22.026Z,99502.22
2023-01-31T13:46:56.126Z,99514.44
2023-01-31T13:49:28.636Z,99514.72
2023-01-31T13:51:59.729Z,99498.31
2023-01-31T13:54:32.383Z,99499.66
2023-01-31T13:57:02.343Z,99501.53
2023-01-31T13:59:32.914Z,99497.00
2023-01-31T14:02:05.254Z,99501.66
2023-01-31T14:04:35.182Z,99498.16
2023-01-31T14:07:22.812Z,99499.03
2023-01-31T14:10:28.796Z,99497.88
2023-01-31T14:13:40.356Z,99487.16
2023-01-31T14:16:38.985Z,99466.63
2023-01-31T14:19:47.952Z,99455.44
2023-01-31T14:22:18.525Z,99470.28
2023-01-31T14:25:12.602Z,99466.03
2023-01-31T14:27:44.709Z,99468.44
2023-01-31T14:30:33.238Z,99464.66
2023-01-31T14:33:20.708Z,99464.53
2023-01-31T14:36:23.216Z,99454.16
2023-01-31T14:39:20.673Z,99443.38
2023-01-31T14:42:10.126Z,99445.81
2023-01-31T14:44:52.034Z,99450.88
2023-01-31T14:47:34.677Z,99450.38
2023-01-31T14:50:33.213Z,99465.66
2023-01-31T14:53:29.995Z,99475.16
2023-01-31T14:56:20.393Z,99464.75
2023-01-31T14:58:49.174Z,99464.16
2023-01-31T15:01:24.236Z,99462.00
2023-01-31T15:03:56.469Z,99458.69
2023-01-31T15:06:28.120Z,99454.38
2023-01-31T15:09:28.064Z,99456.00
2023-01-31T15:11:59.217Z,99473.81
2023-01-31T15:14:36.469Z,99474.06
2023-01-31T15:17:31.648Z,99481.31
2023-01-31T15:20:15.865Z,99482.81
2023-01-31T15:22:46.917Z,99486.56
2023-01-31T15:25:28.283Z,99488.94
2023-01-31T15:27:59.849Z,99479.16
2023-01-31T15:30:34.089Z,99480.63
2023-01-31T15:33:09.662Z,99473.63
2023-01-31T15:35:48.220Z,99475.31
2023-01-31T15:38:28.387Z,99478.44
2023-01-31T15:41:19.592Z,99473.53
2023-01-31T15:43:57.065Z,99459.31
2023-01-31T15:46:29.254Z,99463.56
2023-01-31T15:48:59.575Z,99463.00
2023-01-31T15:51:29.314Z,99453.28
2023-01-31T15:54:13.208Z,99468.03
2023-01-31T15:56:45.285Z,99488.31
2023-01-31T15:59:16.649Z,99478.28
2023-01-31T16:01:50.329Z,99472.50
2023-01-31T16:04:19.357Z,99480.53
2023-01-31T16:06:48.661Z,99480.44
2023-01-31T16:09:26.783Z,99469.28
2023-01-31T16:11:55.378Z,99482.31
2023-01-31T16:14:26.508Z,99483.41
2023-01-31T16:16:57.114Z,99484.97
2023-01-31T16:19:28.367Z,99476.66
2023-01-31T16:21:57.694Z,99490.56
2023-01-31T16:24:26.733Z,99483.78
2023-01-31T16:26:59.568Z,99487.16
2023-01-31T16:29:39.900Z,99482.59
2023-01-31T16:32:18.124Z,99490.22
2023-01-31T16:34:52.977Z,99495.66
2023-01-31T16:37:32.413Z,99493.91
2023-01-31T16:40:05.138Z,99494.50
2023-01-31T16:42:35.376Z,99500.19
2023-01-31T16:45:29.197Z,99498.69
2023-01-31T16:48:10.566Z,99497.59
2023-01-31T16:50:43.725Z,99497.28
2023-01-31T16:53:30.392Z,99498.78
2023-01-31T16:56:18.336Z,99497.44
2023-01-31T16:58:49.900Z,99499.38
2023-01-31T17:01:23.009Z,99499.28
2023-01-31T17:04:23.298Z,99500.72
2023-01-31T17:07:02.148Z,99510.06
2023-01-31T17:09:30.716Z,99507.81
2023-01-31T17:11:59.248Z,99507.69
2023-01-31T17:14:27.409Z,99511.25
2023-01-31T17:16:57.370Z,99506.66
2023-01-31T17:19:31.410Z,99509.16
2023-01-31T17:21:59.990Z,99508.38
2023-01-31T17:24:28.242Z,99519.00
2023-01-31T17:26:56.638Z,99508.88
2023-01-31T17:29:26.091Z,99517.50
2023-01-31T17:31:54.139Z,99505.94
2023-01-31T17:34:23.887Z,99507.25
2023-01-31T17:36:52.032Z,99506.00
2023-01-31T17:39:20.360Z,99487.03
2023-01-31T17:41:48.594Z,99485.84
2023-01-31T17:44:16.979Z,99487.63
2023-01-31T17:46:45.118Z,99489.44
2023-01-31T17:49:13.308Z,99488.41
2023-01-31T17:51:42.814Z,99492.63
2023-01-31T17:54:11.526Z,99478.56
2023-01-31T17:56:40.187Z,99482.50
2023-01-31T17:59:12.335Z,99479.03
2023-01-31T18:01:43.185Z,99475.75
2023-01-31T18:04:11.258Z,99467.50
2023-01-31T18:06:39.297Z,99461.88
2023-01-31T18:09:10.443Z,99457.84
2023-01-31T18:11:43.632Z,99467.88
2023-01-31T18:14:12.970Z,99463.66
2023-01-31T18:16:41.761Z,99456.66
2023-01-31T18:19:11.550Z,99454.81
2023-01-31T18:21:43.981Z,99451.53
2023-01-31T18:24:16.344Z,99461.13
2023-01-31T18:26:45.342Z,99465.91
2023-01-31T18:29:19.383Z,99462.88
2023-01-31T18:31:48.135Z,99465.44
2023-01-31T18:34:17.140Z,99466.03
2023-01-31T18:36:45.631Z,99459.28
2023-01-31T18:39:13.961Z,99463.19
2023-01-31T18:41:43.402Z,99456.19
2023-01-31T18:44:11.610Z,99461.00
2023-01-31T18:46:39.790Z,99459.91
2023-01-31T18:49:08.193Z,99454.41
2023-01-31T18:51:36.565Z,99460.31
2023-01-31T18:54:05.871Z,99458.63
2023-01-31T18:56:34.162Z,99472.53
2023-01-31T18:59:03.958Z,99463.91
2023-01-31T19:01:32.132Z,99463.34
2023-01-31T19:04:00.381Z,99458.88
2023-01-31T19:06:32.079Z,99459.25
2023-01-31T19:09:00.241Z,99447.91
2023-01-31T19:11:29.879Z,99455.47
2023-01-31T19:13:58.312Z,99446.94
2023-01-31T19:16:29.478Z,99451.78
2023-01-31T19:18:58.610Z,99459.13
2023-01-31T19:21:28.325Z,99454.66
2023-01-31T19:23:59.614Z,99471.50
2023-01-31T19:26:28.216Z,99457.03
2023-01-31T19:28:56.534Z,99462.03
2023-01-31T19:31:26.635Z,99472.06
2023-01-31T19:33:57.870Z,99465.84
2023-01-31T19:36:27.526Z,99469.44
2023-01-31T19:38:56.931Z,99456.41
2023-01-31T19:41:26.493Z,99466.34
2023-01-31T19:43:57.078Z,99461.13
2023-01-31T19:46:27.223Z,99452.66
2023-01-31T19:48:58.596Z,99450.75
2023-01-31T19:51:27.262Z,99438.88
2023-01-31T19:53:58.971Z,99446.00
2023-01-31T19:56:27.854Z,99437.03
2023-01-31T19:58:56.447Z,99431.19
2023-01-31T20:01:24.871Z,99427.34
2023-01-31T20:03:55.061Z,99422.53
2023-01-31T20:06:27.133Z,99420.25
2023-01-31T20:08:57.637Z,99426.88
2023-01-31T20:11:27.091Z,99432.91
2023-01-31T20:13:57.738Z,99445.63
2023-01-31T20:16:25.815Z,99444.97
2023-01-31T20:18:55.496Z,99454.81
2023-01-31T20:21:25.059Z,99457.94
2023-01-31T20:23:53.075Z,99453.81
2023-01-31T20:26:24.191Z,99464.31
2023-01-31T20:28:52.638Z,99462.56
2023-01-31T20:31:21.675Z,99463.41
2023-01-31T20:33:52.440Z,99469.03
2023-01-31T20:36:23.825Z,99463.06
2023-01-31T20:38:53.865Z,99466.56
2023-01-31T20:41:22.897Z,99455.75
2023-01-31T20:43:51.542Z,99461.97
2023-01-31T20:46:19.949Z,99458.88
2023-01-31T20:48:48.049Z,99461.00
2023-01-31T20:51:16.176Z,99452.25
2023-01-31T20:53:44.370Z,99469.50
2023-01-31T20:56:13.756Z,99454.22
2023-01-31T20:58:44.156Z,99456.03
2023-01-31T21:01:13.126Z,99442.50
2023-01-31T21:03:41.458Z,99442.50
2023-01-31T21:06:10.191Z,99441.44
2023-01-31T21:08:39.940Z,99428.53
2023-01-31T21:11:10.183Z,99426.22
2023-01-31T21:13:39.928Z,99420.16
2023-01-31T21:16:11.269Z,99406.53
2023-01-31T21:18:44.158Z,99409.03
2023-01-31T21:21:14.696Z,99408.03
2023-01-31T21:23:43.255Z,99409.09
2023-01-31T21:26:13.235Z,99402.69
2023-01-31T21:28:43.806Z,99401.94
2023-01-31T21:31:17.634Z,99404.78
2023-01-31T21:33:45.965Z,99412.97
2023-01-31T21:36:15.887Z,99408.38
2023-01-31T21:38:46.301Z,99408.94
2023-01-31T21:41:33.035Z,99394.88
2023-01-31T21:44:02.524Z,99410.88
2023-01-31T21:46:30.456Z,99417.94
2023-01-31T21:49:00.515Z,99422.19
2023-01-31T21:51:28.699Z,99425.88
2023-01-31T21:53:58.728Z,99425.25
2023-01-31T21:56:28.552Z,99429.16
2023-01-31T21:58:57.290Z,99428.72
2023-01-31T22:01:28.814Z,99430.63
2023-01-31T22:03:57.513Z,99435.53
2023-01-31T22:06:26.984Z,99441.44
2023-01-31T22:08:57.926Z,99452.19
2023-01-31T22:11:28.531Z,99456.84
2023-01-31T22:13:56.628Z,99449.38
2023-01-31T22:16:26.287Z,99463.22
2023-01-31T22:18:54.237Z,99478.28
2023-01-31T22:21:25.093Z,99472.66
2023-01-31T22:23:54.846Z,99478.41
2023-01-31T22:26:24.625Z,99469.09
2023-01-31T22:28:53.001Z,99472.91
2023-01-31T22:31:21.024Z,99472.53
2023-01-31T22:33:50.386Z,99483.09
2023-01-31T22:36:19.174Z,99471.19
2023-01-31T22:38:47.482Z,99469.47
2023-01-31T22:41:19.914Z,99469.41
2023-01-31T22:43:49.826Z,99466.13
2023-01-31T22:46:20.480Z,99454.69
2023-01-31T22:48:49.366Z,99463.22
2023-01-31T22:51:23.007Z,99449.59
2023-01-31T22:53:51.393Z,99446.75
2023-01-31T22:56:22.039Z,99446.66
2023-01-31T22:58:50.098Z,99439.53
2023-01-31T23:01:20.405Z,99442.53
2023-01-31T23:03:49.601Z,99437.34
2023-01-31T23:06:18.611Z,99425.22
2023-01-31T23:08:47.991Z,99426.56
2023-01-31T23:11:18.148Z,99427.56
2023-01-31T23:13:49.075Z,99422.94
2023-01-31T23:16:18.546Z,99426.00
2023-01-31T23:18:47.082Z,99427.84
2023-01-31T23:21:19.048Z,99413.44
2023-01-31T23:23:48.243Z,99409.50
2023-01-31T23:26:16.063Z,99412.25
2023-01-31T23:28:43.922Z,99401.50
2023-01-31T23:31:11.918Z,99401.09
2023-01-31T23:33:42.085Z,99400.13
2023-01-31T23:36:10.665Z,99404.91
2023-01-31T23:38:38.547Z,99404.91
2023-01-31T23:41:07.747Z,99394.38
2023-01-31T23:43:35.557Z,99396.94
2023-01-31T23:46:07.160Z,99394.94
2023-01-31T23:48:35.655Z,99396.78
2023-01-31T23:51:04.551Z,99394.69
2023-01-31T23:53:32.467Z,99396.13
2023-01-31T23:56:00.397Z,99394.59
2023-01-31T23:58:29.632Z,99394.81
